sensor_id;sensor_type;location;lat;lon;timestamp;pressure;altitude;pressure_sealevel;temperature;humidity
60725;BME280;59881;36.722;-4.462;2023-06-01T00:01:58;100549.50;;;18.18;75.14
60725;BME280;59881;36.722;-4.462;2023-06-01T00:04:24;100602.91;;;18.52;75.23
60725;BME280;59881;36.722;-4.462;2023-06-01T00:06:49;100595.91;;;18.51;75.51
60725;BME280;59881;36.722;-4.462;2023-06-01T00:09:15;100597.41;;;18.54;76.03
60725;BME280;59881;36.722;-4.462;2023-06-01T00:11:41;100563.63;;;18.36;76.54
60725;BME280;59881;36.722;-4.462;2023-06-01T00:14:07;100531.13;;;18.15;76.52
60725;BME280;59881;36.722;-4.462;2023-06-01T00:16:32;100199.56;;;16.15;76.62
60725;BME280;59881;36.722;-4.462;2023-06-01T00:18:58;100226.59;;;16.28;76.50
60725;BME280;59881;36.722;-4.462;2023-06-01T00:21:26;100564.69;;;18.26;76.98
60725;BME280;59881;36.722;-4.462;2023-06-01T00:23:53;100187.84;;;15.90;77.10
60725;BME280;59881;36.722;-4.462;2023-06-01T00:26:19;100572.47;;;18.19;77.71
60725;BME280;59881;36.722;-4.462;2023-06-01T00:28:44;100504.13;;;17.74;78.29
60725;BME280;59881;36.722;-4.462;2023-06-01T00:31:10;100271.06;;;16.54;79.09
60725;BME280;59881;36.722;-4.462;2023-06-01T00:33:35;100077.78;;;15.19;79.82
60725;BME280;59881;36.722;-4.462;2023-06-01T00:36:01;100512.34;;;17.98;80.66
60725;BME280;59881;36.722;-4.462;2023-06-01T00:38:27;100453.34;;;17.57;80.69
60725;BME280;59881;36.722;-4.462;2023-06-01T00:40:52;100584.47;;;18.41;81.50
60725;BME280;59881;36.722;-4.462;2023-06-01T00:43:18;100582.63;;;18.41;82.13
60725;BME280;59881;36.722;-4.462;2023-06-01T00:45:44;100586.47;;;18.39;82.13
60725;BME280;59881;36.722;-4.462;2023-06-01T00:48:11;100578.59;;;18.37;82.16
60725;BME280;59881;36.722;-4.462;2023-06-01T00:50:36;100558.22;;;18.28;82.36
60725;BME280;59881;36.722;-4.462;2023-06-01T00:53:05;100275.69;;;16.52;82.02
60725;BME280;59881;36.722;-4.462;2023-06-01T00:55:32;100567.91;;;18.29;82.33
60725;BME280;59881;36.722;-4.462;2023-06-01T00:57:59;100477.47;;;17.74;82.31
60725;BME280;59881;36.722;-4.462;2023-06-01T01:00:26;100420.88;;;17.36;82.21
60725;BME280;59881;36.722;-4.462;2023-06-01T01:02:52;100486.91;;;17.32;82.18
60725;BME280;59881;36.722;-4.462;2023-06-01T01:05:18;100443.38;;;17.42;81.89
60725;BME280;59881;36.722;-4.462;2023-06-01T01:11:26;100169.59;;;15.67;81.03
60725;BME280;59881;36.722;-4.462;2023-06-01T01:14:23;100563.75;;;18.09;80.63
60725;BME280;59881;36.722;-4.462;2023-06-01T01:16:51;100551.25;;;18.09;80.24
60725;BME280;59881;36.722;-4.462;2023-06-01T01:28:18;100558.34;;;18.01;77.77
60725;BME280;59881;36.722;-4.462;2023-06-01T01:30:45;100559.16;;;18.01;77.72
60725;BME280;59881;36.722;-4.462;2023-06-01T01:33:13;100565.06;;;17.87;77.37
60725;BME280;59881;36.722;-4.462;2023-06-01T01:35:39;100244.72;;;16.15;77.10
60725;BME280;59881;36.722;-4.462;2023-06-01T01:38:05;100214.44;;;16.08;76.80
60725;BME280;59881;36.722;-4.462;2023-06-01T01:40:31;100536.22;;;18.08;76.89
60725;BME280;59881;36.722;-4.462;2023-06-01T01:42:56;100456.63;;;17.51;76.95
60725;BME280;59881;36.722;-4.462;2023-06-01T01:45:23;100208.69;;;16.03;77.44
60725;BME280;59881;36.722;-4.462;2023-06-01T01:48:05;100538.22;;;18.06;77.43
60725;BME280;59881;36.722;-4.462;2023-06-01T01:50:44;100538.53;;;18.03;77.65
60725;BME280;59881;36.722;-4.462;2023-06-01T01:53:13;100537.69;;;18.03;77.74
60725;BME280;59881;36.722;-4.462;2023-06-01T01:55:39;100306.84;;;16.60;77.52
60725;BME280;59881;36.722;-4.462;2023-06-01T01:58:06;100232.34;;;16.06;77.55
60725;BME280;59881;36.722;-4.462;2023-06-01T02:00:31;100269.22;;;16.37;77.20
60725;BME280;59881;36.722;-4.462;2023-06-01T02:02:59;100529.50;;;17.96;77.21
60725;BME280;59881;36.722;-4.462;2023-06-01T02:05:25;100292.09;;;16.47;76.83
60725;BME280;59881;36.722;-4.462;2023-06-01T02:07:51;100530.22;;;17.88;77.03
60725;BME280;59881;36.722;-4.462;2023-06-01T02:10:16;100060.41;;;14.97;76.64
60725;BME280;59881;36.722;-4.462;2023-06-01T02:12:42;100529.88;;;17.83;76.76
60725;BME280;59881;36.722;-4.462;2023-06-01T02:15:07;99950.94;;;14.30;76.44
60725;BME280;59881;36.722;-4.462;2023-06-01T02:17:33;100507.69;;;17.65;76.74
60725;BME280;59881;36.722;-4.462;2023-06-01T02:19:59;100528.47;;;17.79;76.67
60725;BME280;59881;36.722;-4.462;2023-06-01T02:22:24;100528.47;;;17.79;76.81
60725;BME280;59881;36.722;-4.462;2023-06-01T02:24:50;100511.88;;;17.67;76.81
60725;BME280;59881;36.722;-4.462;2023-06-01T02:27:15;100540.28;;;17.76;76.88
60725;BME280;59881;36.722;-4.462;2023-06-01T02:29:41;100486.91;;;17.50;76.77
60725;BME280;59881;36.722;-4.462;2023-06-01T02:32:07;100146.44;;;15.32;76.63
60725;BME280;59881;36.722;-4.462;2023-06-01T02:34:32;100441.13;;;16.83;76.94
60725;BME280;59881;36.722;-4.462;2023-06-01T02:36:58;100507.06;;;17.53;77.22
60725;BME280;59881;36.722;-4.462;2023-06-01T02:39:24;100609.06;;;17.63;77.39
60725;BME280;59881;36.722;-4.462;2023-06-01T02:41:50;100522.13;;;17.62;77.52
60725;BME280;59881;36.722;-4.462;2023-06-01T02:44:15;100522.13;;;17.62;77.59
60725;BME280;59881;36.722;-4.462;2023-06-01T02:46:41;100524.78;;;17.62;78.02
60725;BME280;59881;36.722;-4.462;2023-06-01T02:49:06;100281.09;;;16.14;77.93
60725;BME280;59881;36.722;-4.462;2023-06-01T02:51:32;100515.28;;;17.59;78.12
60725;BME280;59881;36.722;-4.462;2023-06-01T02:53:59;100210.00;;;15.71;77.91
60725;BME280;59881;36.722;-4.462;2023-06-01T02:56:24;100399.94;;;16.87;78.07
60725;BME280;59881;36.722;-4.462;2023-06-01T02:58:50;100514.59;;;17.57;77.92
60725;BME280;59881;36.722;-4.462;2023-06-01T03:01:16;100493.16;;;17.41;77.64
60725;BME280;59881;36.722;-4.462;2023-06-01T03:03:42;100513.53;;;17.50;77.47
60725;BME280;59881;36.722;-4.462;2023-06-01T03:06:07;100472.66;;;17.24;77.27
60725;BME280;59881;36.722;-4.462;2023-06-01T03:08:34;100240.97;;;15.80;76.99
60725;BME280;59881;36.722;-4.462;2023-06-01T03:11:00;100545.25;;;17.26;76.82
60725;BME280;59881;36.722;-4.462;2023-06-01T03:13:26;100499.91;;;17.35;76.50
60725;BME280;59881;36.722;-4.462;2023-06-01T03:15:51;100150.13;;;15.11;76.05
60725;BME280;59881;36.722;-4.462;2023-06-01T03:18:17;100493.59;;;17.19;75.94
60725;BME280;59881;36.722;-4.462;2023-06-01T03:20:42;100497.88;;;17.29;75.62
60725;BME280;59881;36.722;-4.462;2023-06-01T03:23:08;100544.31;;;17.17;75.76
60725;BME280;59881;36.722;-4.462;2023-06-01T03:25:33;100498.97;;;17.27;74.92
60725;BME280;59881;36.722;-4.462;2023-06-01T03:27:59;100473.88;;;17.11;74.65
60725;BME280;59881;36.722;-4.462;2023-06-01T03:30:24;100469.84;;;17.07;74.41
60725;BME280;59881;36.722;-4.462;2023-06-01T03:32:50;100493.28;;;17.22;74.34
60725;BME280;59881;36.722;-4.462;2023-06-01T03:35:16;99959.53;;;13.95;73.84
60725;BME280;59881;36.722;-4.462;2023-06-01T03:37:43;100478.91;;;17.14;74.02
60725;BME280;59881;36.722;-4.462;2023-06-01T03:40:09;100504.22;;;17.19;73.81
60725;BME280;59881;36.722;-4.462;2023-06-01T03:42:39;100487.72;;;17.15;73.43
60725;BME280;59881;36.722;-4.462;2023-06-01T03:45:05;100372.16;;;16.44;73.36
60725;BME280;59881;36.722;-4.462;2023-06-01T03:47:31;100491.50;;;17.12;73.22
60725;BME280;59881;36.722;-4.462;2023-06-01T03:49:57;100435.63;;;16.57;72.97
60725;BME280;59881;36.722;-4.462;2023-06-01T03:52:24;100322.69;;;16.06;73.15
60725;BME280;59881;36.722;-4.462;2023-06-01T03:54:51;100441.81;;;16.75;72.80
60725;BME280;59881;36.722;-4.462;2023-06-01T03:57:17;99996.34;;;13.98;72.49
60725;BME280;59881;36.722;-4.462;2023-06-01T03:59:42;100428.16;;;16.33;72.58
60725;BME280;59881;36.722;-4.462;2023-06-01T04:02:08;100503.69;;;17.15;72.46
60725;BME280;59881;36.722;-4.462;2023-06-01T04:04:35;100552.72;;;17.12;72.51
60725;BME280;59881;36.722;-4.462;2023-06-01T04:07:01;100410.28;;;16.63;72.41
60725;BME280;59881;36.722;-4.462;2023-06-01T04:09:29;100495.00;;;17.13;72.35
60725;BME280;59881;36.722;-4.462;2023-06-01T04:11:55;100320.03;;;16.06;72.32
60725;BME280;59881;36.722;-4.462;2023-06-01T04:14:20;99841.59;;;13.04;71.83
60725;BME280;59881;36.722;-4.462;2023-06-01T04:16:46;100510.91;;;17.05;72.38
60725;BME280;59881;36.722;-4.462;2023-06-01T04:19:11;100428.59;;;16.66;72.26
60725;BME280;59881;36.722;-4.462;2023-06-01T04:21:37;100307.28;;;15.62;72.44
60725;BME280;59881;36.722;-4.462;2023-06-01T04:24:03;100531.25;;;16.96;72.39
60725;BME280;59881;36.722;-4.462;2023-06-01T04:26:28;100460.75;;;16.72;72.62
60725;BME280;59881;36.722;-4.462;2023-06-01T04:28:58;100458.09;;;16.72;72.79
60725;BME280;59881;36.722;-4.462;2023-06-01T04:31:24;100473.59;;;16.87;72.96
60725;BME280;59881;36.722;-4.462;2023-06-01T04:33:50;100494.53;;;17.00;73.02
60725;BME280;59881;36.722;-4.462;2023-06-01T04:36:22;100512.53;;;16.88;72.70
60725;BME280;59881;36.722;-4.462;2023-06-01T04:38:48;100496.34;;;16.99;72.97
60725;BME280;59881;36.722;-4.462;2023-06-01T04:41:19;100446.06;;;16.68;72.94
60725;BME280;59881;36.722;-4.462;2023-06-01T04:43:49;100391.78;;;16.33;72.74
60725;BME280;59881;36.722;-4.462;2023-06-01T04:46:24;99863.88;;;13.02;72.65
60725;BME280;59881;36.722;-4.462;2023-06-01T04:48:52;100494.28;;;16.93;73.00
60725;BME280;59881;36.722;-4.462;2023-06-01T04:51:18;100495.97;;;16.94;73.03
60725;BME280;59881;36.722;-4.462;2023-06-01T04:53:50;100504.78;;;16.94;73.04
60725;BME280;59881;36.722;-4.462;2023-06-01T04:56:21;100504.47;;;16.98;73.07
60725;BME280;59881;36.722;-4.462;2023-06-01T04:58:52;100232.38;;;15.21;72.91
60725;BME280;59881;36.722;-4.462;2023-06-01T05:01:18;100488.13;;;16.92;73.19
60725;BME280;59881;36.722;-4.462;2023-06-01T05:03:47;100467.28;;;16.78;73.05
60725;BME280;59881;36.722;-4.462;2023-06-01T05:06:13;100496.84;;;17.12;72.97
60725;BME280;59881;36.722;-4.462;2023-06-01T05:08:41;100479.03;;;17.13;72.63
60725;BME280;59881;36.722;-4.462;2023-06-01T05:11:08;100480.97;;;17.21;72.64
60725;BME280;59881;36.722;-4.462;2023-06-01T05:13:38;100210.97;;;15.70;72.01
60725;BME280;59881;36.722;-4.462;2023-06-01T05:16:05;100435.53;;;17.22;71.82
60725;BME280;59881;36.722;-4.462;2023-06-01T05:18:32;100275.91;;;16.41;71.43
60725;BME280;59881;36.722;-4.462;2023-06-01T05:20:58;100338.13;;;16.93;70.91
60725;BME280;59881;36.722;-4.462;2023-06-01T05:23:24;100430.66;;;17.71;70.32
60725;BME280;59881;36.722;-4.462;2023-06-01T05:25:51;100499.66;;;18.45;70.00
60725;BME280;59881;36.722;-4.462;2023-06-01T05:28:17;100443.81;;;18.77;69.53
60725;BME280;59881;36.722;-4.462;2023-06-01T05:30:43;100550.75;;;20.02;67.56
60725;BME280;59881;36.722;-4.462;2023-06-01T05:33:08;100486.78;;;20.73;64.27
60725;BME280;59881;36.722;-4.462;2023-06-01T05:35:34;100493.38;;;20.93;61.75
60725;BME280;59881;36.722;-4.462;2023-06-01T05:38:00;100129.91;;;18.68;60.14
60725;BME280;59881;36.722;-4.462;2023-06-01T05:40:25;100484.94;;;21.13;59.81
60725;BME280;59881;36.722;-4.462;2023-06-01T05:42:51;100371.53;;;21.20;58.48
60725;BME280;59881;36.722;-4.462;2023-06-01T05:45:17;100462.78;;;22.85;55.67
60725;BME280;59881;36.722;-4.462;2023-06-01T05:47:43;99994.81;;;20.98;52.60
60725;BME280;59881;36.722;-4.462;2023-06-01T05:50:09;100397.06;;;24.30;49.89
60725;BME280;59881;36.722;-4.462;2023-06-01T05:52:34;100477.72;;;24.80;48.20
60725;BME280;59881;36.722;-4.462;2023-06-01T05:55:00;100295.00;;;23.03;49.07
60725;BME280;59881;36.722;-4.462;2023-06-01T05:57:25;100213.13;;;22.56;49.97
60725;BME280;59881;36.722;-4.462;2023-06-01T05:59:51;100490.31;;;25.21;48.01
60725;BME280;59881;36.722;-4.462;2023-06-01T06:02:18;100320.50;;;25.21;46.09
60725;BME280;59881;36.722;-4.462;2023-06-01T06:04:44;100562.03;;;26.77;44.17
60725;BME280;59881;36.722;-4.462;2023-06-01T06:07:10;100479.22;;;26.96;43.41
60725;BME280;59881;36.722;-4.462;2023-06-01T06:09:36;100129.94;;;24.28;43.58
60725;BME280;59881;36.722;-4.462;2023-06-01T06:12:02;100448.00;;;25.22;44.79
60725;BME280;59881;36.722;-4.462;2023-06-01T06:14:27;100261.59;;;23.40;46.84
60725;BME280;59881;36.722;-4.462;2023-06-01T06:16:53;100331.91;;;23.44;48.16
60725;BME280;59881;36.722;-4.462;2023-06-01T06:19:18;100504.41;;;24.12;49.94
60725;BME280;59881;36.722;-4.462;2023-06-01T06:21:44;100452.44;;;23.62;50.27
60725;BME280;59881;36.722;-4.462;2023-06-01T06:24:10;100502.44;;;24.27;51.48
60725;BME280;59881;36.722;-4.462;2023-06-01T06:26:35;100473.97;;;24.81;51.17
60725;BME280;59881;36.722;-4.462;2023-06-01T06:29:01;100508.69;;;26.26;48.48
60725;BME280;59881;36.722;-4.462;2023-06-01T06:31:26;100412.78;;;26.10;47.17
60725;BME280;59881;36.722;-4.462;2023-06-01T06:33:52;100473.13;;;26.62;44.93
60725;BME280;59881;36.722;-4.462;2023-06-01T06:36:18;100452.22;;;26.17;44.18
60725;BME280;59881;36.722;-4.462;2023-06-01T06:38:44;100412.97;;;24.53;43.33
60725;BME280;59881;36.722;-4.462;2023-06-01T06:41:10;100081.69;;;21.98;44.53
60725;BME280;59881;36.722;-4.462;2023-06-01T06:43:35;100521.63;;;23.89;45.59
60725;BME280;59881;36.722;-4.462;2023-06-01T06:46:01;100531.88;;;23.43;47.05
60725;BME280;59881;36.722;-4.462;2023-06-01T06:48:27;100526.50;;;22.91;47.69
60725;BME280;59881;36.722;-4.462;2023-06-01T06:50:52;100240.91;;;21.22;48.73
60725;BME280;59881;36.722;-4.462;2023-06-01T06:53:18;100338.72;;;21.79;49.07
60725;BME280;59881;36.722;-4.462;2023-06-01T06:55:43;100445.22;;;22.53;49.17
60725;BME280;59881;36.722;-4.462;2023-06-01T06:58:10;100554.66;;;23.10;49.38
60725;BME280;59881;36.722;-4.462;2023-06-01T07:00:36;100515.53;;;23.23;49.61
60725;BME280;59881;36.722;-4.462;2023-06-01T07:03:02;100406.16;;;22.50;49.42
60725;BME280;59881;36.722;-4.462;2023-06-01T07:05:28;100568.50;;;23.29;49.93
60725;BME280;59881;36.722;-4.462;2023-06-01T07:07:54;100519.13;;;23.30;50.08
60725;BME280;59881;36.722;-4.462;2023-06-01T07:10:20;100306.88;;;21.91;50.01
60725;BME280;59881;36.722;-4.462;2023-06-01T07:12:45;100522.31;;;23.04;50.12
60725;BME280;59881;36.722;-4.462;2023-06-01T07:15:11;100449.66;;;22.46;51.07
60725;BME280;59881;36.722;-4.462;2023-06-01T07:17:36;100538.25;;;23.05;51.44
60725;BME280;59881;36.722;-4.462;2023-06-01T07:20:03;100495.84;;;22.71;51.64
60725;BME280;59881;36.722;-4.462;2023-06-01T07:22:33;100550.22;;;23.03;51.83
60725;BME280;59881;36.722;-4.462;2023-06-01T07:24:59;100552.34;;;23.07;51.99
60725;BME280;59881;36.722;-4.462;2023-06-01T07:27:24;100560.56;;;23.21;52.22
60725;BME280;59881;36.722;-4.462;2023-06-01T07:29:51;100277.31;;;21.32;51.41
60725;BME280;59881;36.722;-4.462;2023-06-01T07:32:21;100537.84;;;23.23;51.11
60725;BME280;59881;36.722;-4.462;2023-06-01T07:34:46;100499.34;;;23.01;51.19
60725;BME280;59881;36.722;-4.462;2023-06-01T07:37:12;100559.72;;;23.57;50.53
60725;BME280;59881;36.722;-4.462;2023-06-01T07:39:37;100501.97;;;23.31;50.52
60725;BME280;59881;36.722;-4.462;2023-06-01T07:42:03;100595.59;;;23.79;50.36
60725;BME280;59881;36.722;-4.462;2023-06-01T07:44:29;100503.88;;;23.37;50.15
60725;BME280;59881;36.722;-4.462;2023-06-01T07:46:54;100505.28;;;23.11;49.59
60725;BME280;59881;36.722;-4.462;2023-06-01T07:49:20;100230.44;;;21.51;49.25
60725;BME280;59881;36.722;-4.462;2023-06-01T07:51:45;100577.53;;;23.58;49.51
60725;BME280;59881;36.722;-4.462;2023-06-01T07:54:11;100303.66;;;21.81;49.65
60725;BME280;59881;36.722;-4.462;2023-06-01T07:56:36;100393.84;;;22.41;49.66
60725;BME280;59881;36.722;-4.462;2023-06-01T07:59:02;100169.53;;;20.54;49.50
60725;BME280;59881;36.722;-4.462;2023-06-01T08:01:28;100511.56;;;22.89;49.27
60725;BME280;59881;36.722;-4.462;2023-06-01T08:03:53;100207.00;;;20.62;49.65
60725;BME280;59881;36.722;-4.462;2023-06-01T08:06:21;100459.47;;;22.24;50.02
60725;BME280;59881;36.722;-4.462;2023-06-01T08:08:49;100571.97;;;23.23;49.76
60725;BME280;59881;36.722;-4.462;2023-06-01T08:11:15;99940.72;;;19.29;49.63
60725;BME280;59881;36.722;-4.462;2023-06-01T08:13:41;100437.16;;;22.38;49.73
60725;BME280;59881;36.722;-4.462;2023-06-01T08:16:11;100315.56;;;21.78;49.33
60725;BME280;59881;36.722;-4.462;2023-06-01T08:18:38;100577.41;;;23.66;48.46
60725;BME280;59881;36.722;-4.462;2023-06-01T08:21:03;100577.47;;;23.87;47.54
60725;BME280;59881;36.722;-4.462;2023-06-01T08:23:29;100592.50;;;24.25;46.78
60725;BME280;59881;36.722;-4.462;2023-06-01T08:25:55;100001.78;;;21.14;46.16
60725;BME280;59881;36.722;-4.462;2023-06-01T08:28:21;100567.25;;;25.24;45.28
60725;BME280;59881;36.722;-4.462;2023-06-01T08:30:46;100301.66;;;23.91;43.68
60725;BME280;59881;36.722;-4.462;2023-06-01T08:33:12;100321.03;;;24.70;42.75
60725;BME280;59881;36.722;-4.462;2023-06-01T08:35:37;100327.47;;;24.69;42.56
60725;BME280;59881;36.722;-4.462;2023-06-01T08:38:03;99759.75;;;21.71;42.83
60725;BME280;59881;36.722;-4.462;2023-06-01T08:40:31;100452.66;;;27.56;40.95
60725;BME280;59881;36.722;-4.462;2023-06-01T08:43:04;100258.03;;;26.93;38.25
60725;BME280;59881;36.722;-4.462;2023-06-01T08:45:34;100118.81;;;26.83;36.66
60725;BME280;59881;36.722;-4.462;2023-06-01T08:48:01;100061.59;;;25.48;38.63
60725;BME280;59881;36.722;-4.462;2023-06-01T08:50:27;100561.09;;;27.61;40.31
60725;BME280;59881;36.722;-4.462;2023-06-01T08:52:53;99960.97;;;23.44;41.61
60725;BME280;59881;36.722;-4.462;2023-06-01T08:55:21;100570.63;;;27.26;41.64
60725;BME280;59881;36.722;-4.462;2023-06-01T08:57:47;100429.59;;;26.05;41.53
60725;BME280;59881;36.722;-4.462;2023-06-01T09:00:14;100584.75;;;27.73;40.69
60725;BME280;59881;36.722;-4.462;2023-06-01T09:02:41;99631.91;;;22.93;39.57
60725;BME280;59881;36.722;-4.462;2023-06-01T09:05:08;100280.34;;;27.57;37.71
60725;BME280;59881;36.722;-4.462;2023-06-01T09:07:34;100553.50;;;30.40;35.81
60725;BME280;59881;36.722;-4.462;2023-06-01T09:10:00;100022.44;;;26.77;36.25
60725;BME280;59881;36.722;-4.462;2023-06-01T09:12:28;100556.50;;;29.55;36.55
60725;BME280;59881;36.722;-4.462;2023-06-01T09:15:18;100546.84;;;28.73;37.52
60725;BME280;59881;36.722;-4.462;2023-06-01T09:17:47;100421.19;;;26.98;37.28
60725;BME280;59881;36.722;-4.462;2023-06-01T09:20:14;100586.81;;;28.34;37.65
60725;BME280;59881;36.722;-4.462;2023-06-01T09:22:46;100553.84;;;28.99;36.31
60725;BME280;59881;36.722;-4.462;2023-06-01T09:25:13;100620.09;;;28.66;36.30
60725;BME280;59881;36.722;-4.462;2023-06-01T09:27:50;100557.97;;;29.69;35.15
60725;BME280;59881;36.722;-4.462;2023-06-01T09:30:17;100143.69;;;28.57;33.21
60725;BME280;59881;36.722;-4.462;2023-06-01T09:32:44;100144.38;;;29.35;32.70
60725;BME280;59881;36.722;-4.462;2023-06-01T09:35:13;100562.84;;;32.62;31.99
60725;BME280;59881;36.722;-4.462;2023-06-01T09:37:38;100459.66;;;32.54;31.36
60725;BME280;59881;36.722;-4.462;2023-06-01T09:40:24;100358.44;;;31.67;31.39
60725;BME280;59881;36.722;-4.462;2023-06-01T09:42:50;100487.22;;;31.68;32.31
60725;BME280;59881;36.722;-4.462;2023-06-01T09:45:22;100567.84;;;31.40;33.07
60725;BME280;59881;36.722;-4.462;2023-06-01T09:47:48;100606.59;;;30.12;34.91
60725;BME280;59881;36.722;-4.462;2023-06-01T09:50:36;100578.06;;;28.57;37.90
60725;BME280;59881;36.722;-4.462;2023-06-01T09:53:04;100601.97;;;27.85;39.15
60725;BME280;59881;36.722;-4.462;2023-06-01T09:55:30;100535.16;;;26.95;40.24
60725;BME280;59881;36.722;-4.462;2023-06-01T09:58:21;100582.00;;;27.41;41.14
60725;BME280;59881;36.722;-4.462;2023-06-01T10:00:51;100592.81;;;27.86;40.69
60725;BME280;59881;36.722;-4.462;2023-06-01T10:03:18;100393.28;;;26.73;40.36
60725;BME280;59881;36.722;-4.462;2023-06-01T10:05:46;100583.69;;;28.99;39.50
60725;BME280;59881;36.722;-4.462;2023-06-01T10:08:13;100590.59;;;29.62;39.13
60725;BME280;59881;36.722;-4.462;2023-06-01T10:10:40;100597.06;;;29.31;39.53
60725;BME280;59881;36.722;-4.462;2023-06-01T10:13:07;100610.47;;;28.71;40.13
60725;BME280;59881;36.722;-4.462;2023-06-01T10:15:33;100399.34;;;27.00;40.91
60725;BME280;59881;36.722;-4.462;2023-06-01T10:18:00;100485.66;;;27.40;41.40
60725;BME280;59881;36.722;-4.462;2023-06-01T10:20:25;100483.41;;;26.85;43.42
60725;BME280;59881;36.722;-4.462;2023-06-01T10:22:52;100613.00;;;28.15;43.49
60725;BME280;59881;36.722;-4.462;2023-06-01T10:25:21;100389.34;;;26.69;43.60
60725;BME280;59881;36.722;-4.462;2023-06-01T10:28:04;100289.06;;;26.00;44.18
60725;BME280;59881;36.722;-4.462;2023-06-01T10:30:30;100528.47;;;27.04;45.27
60725;BME280;59881;36.722;-4.462;2023-06-01T10:32:56;100428.16;;;25.96;45.80
60725;BME280;59881;36.722;-4.462;2023-06-01T10:40:33;100625.94;;;27.30;47.18
60725;BME280;59881;36.722;-4.462;2023-06-01T10:42:59;100008.72;;;22.93;48.41
60725;BME280;59881;36.722;-4.462;2023-06-01T10:48:01;100640.81;;;26.74;49.91
60725;BME280;59881;36.722;-4.462;2023-06-01T10:50:27;100505.09;;;25.45;51.40
60725;BME280;59881;36.722;-4.462;2023-06-01T10:52:54;100385.41;;;24.16;52.73
60725;BME280;59881;36.722;-4.462;2023-06-01T10:55:26;100250.81;;;23.05;53.86
60725;BME280;59881;36.722;-4.462;2023-06-01T10:58:29;100645.97;;;25.12;55.36
60725;BME280;59881;36.722;-4.462;2023-06-01T11:00:55;100264.78;;;22.58;56.01
60725;BME280;59881;36.722;-4.462;2023-06-01T11:03:47;100639.44;;;24.93;57.08
60725;BME280;59881;36.722;-4.462;2023-06-01T11:06:28;100333.94;;;22.92;57.47
60725;BME280;59881;36.722;-4.462;2023-06-01T11:08:56;100366.69;;;23.73;57.07
60725;BME280;59881;36.722;-4.462;2023-06-01T11:11:22;100600.22;;;25.26;53.51
60725;BME280;59881;36.722;-4.462;2023-06-01T11:14:08;100491.81;;;24.82;55.11
60725;BME280;59881;36.722;-4.462;2023-06-01T11:16:34;100388.13;;;24.23;54.76
60725;BME280;59881;36.722;-4.462;2023-06-01T11:19:01;100191.53;;;23.13;52.79
60725;BME280;59881;36.722;-4.462;2023-06-01T11:21:29;100617.81;;;25.70;53.06
60725;BME280;59881;36.722;-4.462;2023-06-01T11:23:58;100616.69;;;25.37;52.87
60725;BME280;59881;36.722;-4.462;2023-06-01T11:26:34;100627.06;;;25.06;53.70
60725;BME280;59881;36.722;-4.462;2023-06-01T11:29:23;100337.50;;;22.41;54.46
60725;BME280;59881;36.722;-4.462;2023-06-01T11:31:58;100637.44;;;24.74;52.75
60725;BME280;59881;36.722;-4.462;2023-06-01T11:34:38;100452.53;;;23.47;52.86
60725;BME280;59881;36.722;-4.462;2023-06-01T11:37:17;100666.69;;;24.49;52.61
60725;BME280;59881;36.722;-4.462;2023-06-01T11:39:44;100620.78;;;24.64;51.61
60725;BME280;59881;36.722;-4.462;2023-06-01T11:42:15;100592.56;;;24.60;50.76
60725;BME280;59881;36.722;-4.462;2023-06-01T11:44:45;100684.88;;;24.75;52.47
60725;BME280;59881;36.722;-4.462;2023-06-01T11:47:27;98873.97;;;14.19;52.78
60725;BME280;59881;36.722;-4.462;2023-06-01T11:49:53;98855.69;;;13.44;52.15
60725;BME280;59881;36.722;-4.462;2023-06-01T11:52:19;98974.72;;;15.38;51.88
60725;BME280;59881;36.722;-4.462;2023-06-01T11:54:46;99104.28;;;16.28;49.27
60725;BME280;59881;36.722;-4.462;2023-06-01T11:57:12;98904.59;;;14.69;48.59
60725;BME280;59881;36.722;-4.462;2023-06-01T11:59:48;100574.25;;;25.18;49.56
60725;BME280;59881;36.722;-4.462;2023-06-01T12:02:19;100578.50;;;25.34;49.84
60725;BME280;59881;36.722;-4.462;2023-06-01T12:05:04;100577.25;;;25.36;50.81
60725;BME280;59881;36.722;-4.462;2023-06-01T12:07:51;100510.50;;;24.97;51.12
60725;BME280;59881;36.722;-4.462;2023-06-01T12:10:19;100566.50;;;25.43;50.22
60725;BME280;59881;36.722;-4.462;2023-06-01T12:12:45;100217.34;;;23.08;48.61
60725;BME280;59881;36.722;-4.462;2023-06-01T12:15:14;100492.84;;;24.81;48.32
60725;BME280;59881;36.722;-4.462;2023-06-01T12:17:51;100252.22;;;23.29;46.79
60725;BME280;59881;36.722;-4.462;2023-06-01T12:20:29;100539.22;;;25.18;48.48
60725;BME280;59881;36.722;-4.462;2023-06-01T12:22:56;100291.06;;;23.83;49.17
60725;BME280;59881;36.722;-4.462;2023-06-01T12:25:22;100524.44;;;25.55;48.16
60725;BME280;59881;36.722;-4.462;2023-06-01T12:28:05;100371.22;;;24.84;47.19
60725;BME280;59881;36.722;-4.462;2023-06-01T12:30:31;100484.13;;;25.27;45.58
60725;BME280;59881;36.722;-4.462;2023-06-01T12:32:57;100553.25;;;25.55;45.21
60725;BME280;59881;36.722;-4.462;2023-06-01T12:35:22;100229.19;;;23.83;45.71
60725;BME280;59881;36.722;-4.462;2023-06-01T12:40:34;100330.19;;;24.95;43.67
60725;BME280;59881;36.722;-4.462;2023-06-01T12:43:00;100489.00;;;25.92;44.33
60725;BME280;59881;36.722;-4.462;2023-06-01T12:45:34;100490.63;;;25.86;42.53
60725;BME280;59881;36.722;-4.462;2023-06-01T12:48:01;100410.91;;;25.57;42.78
60725;BME280;59881;36.722;-4.462;2023-06-01T12:50:27;100532.97;;;25.86;44.47
60725;BME280;59881;36.722;-4.462;2023-06-01T12:52:52;99961.84;;;22.96;43.94
60725;BME280;59881;36.722;-4.462;2023-06-01T12:55:18;100438.75;;;25.71;43.43
60725;BME280;59881;36.722;-4.462;2023-06-01T12:57:52;100266.41;;;24.28;41.55
60725;BME280;59881;36.722;-4.462;2023-06-01T13:00:18;100451.72;;;25.14;42.44
60725;BME280;59881;36.722;-4.462;2023-06-01T13:02:44;100495.47;;;25.16;43.98
60725;BME280;59881;36.722;-4.462;2023-06-01T13:05:15;100482.06;;;25.36;44.18
60725;BME280;59881;36.722;-4.462;2023-06-01T13:07:43;100265.31;;;24.09;44.56